createdAt,value
2019-03-17T00:00:03.044Z,991.89
2019-03-17T00:01:02.991Z,991.93
2019-03-17T00:02:02.979Z,991.94
2019-03-17T00:03:02.990Z,991.82
2019-03-17T00:04:02.980Z,991.76
2019-03-17T00:05:02.974Z,991.87
2019-03-17T00:06:02.976Z,991.82
2019-03-17T00:07:02.930Z,991.77
2019-03-17T00:08:02.973Z,991.74
2019-03-17T00:09:02.912Z,991.83
2019-03-17T00:10:03.028Z,991.78
2019-03-17T00:11:02.922Z,991.90
2019-03-17T00:12:02.886Z,991.86
2019-03-17T00:13:02.875Z,991.88
2019-03-17T00:14:02.854Z,991.65
2019-03-17T00:15:05.542Z,991.70
2019-03-17T00:16:02.873Z,991.65
2019-03-17T00:17:02.812Z,991.67
2019-03-17T00:18:02.802Z,991.64
2019-03-17T00:19:02.791Z,991.53
2019-03-17T00:20:02.795Z,991.60
2019-03-17T00:21:02.805Z,991.42
2019-03-17T00:22:02.778Z,991.62
2019-03-17T00:23:02.748Z,991.53
2019-03-17T00:24:02.746Z,991.47
2019-03-17T00:25:09.013Z,991.37
2019-03-17T00:26:03.750Z,991.37
2019-03-17T00:27:02.711Z,991.39
2019-03-17T00:28:02.703Z,991.49
2019-03-17T00:29:02.683Z,991.42
2019-03-17T00:30:02.669Z,991.47
2019-03-17T00:31:02.661Z,991.41
2019-03-17T00:32:02.671Z,991.35
2019-03-17T00:33:02.648Z,991.64
2019-03-17T00:34:02.627Z,991.35
2019-03-17T00:35:02.613Z,991.29
2019-03-17T00:36:02.636Z,991.39
2019-03-17T00:37:02.596Z,991.30
2019-03-17T00:38:02.582Z,991.31
2019-03-17T00:39:02.581Z,991.27
2019-03-17T00:40:02.564Z,991.24
2019-03-17T00:41:02.564Z,991.29
2019-03-17T00:42:02.564Z,991.28
2019-03-17T00:43:02.531Z,991.36
2019-03-17T00:44:02.527Z,991.25
2019-03-17T00:45:02.523Z,991.35
2019-03-17T00:46:02.505Z,991.25
2019-03-17T00:47:02.512Z,991.27
2019-03-17T00:48:02.470Z,991.27
2019-03-17T00:49:02.477Z,991.26
2019-03-17T00:50:02.457Z,991.33
2019-03-17T00:51:02.439Z,991.41
2019-03-17T00:52:02.489Z,991.23
2019-03-17T00:53:02.427Z,991.26
2019-03-17T00:54:02.407Z,991.36
2019-03-17T00:55:02.396Z,991.22
2019-03-17T00:56:02.385Z,991.22
2019-03-17T00:57:02.395Z,991.22
2019-03-17T00:58:02.362Z,991.17
2019-03-17T00:59:02.347Z,991.17
2019-03-17T01:00:02.345Z,991.18
2019-03-17T01:01:02.327Z,991.05
2019-03-17T01:02:02.355Z,991.12
2019-03-17T01:03:23.355Z,991.07
2019-03-17T01:04:02.296Z,991.16
2019-03-17T01:05:02.291Z,991.07
2019-03-17T01:06:02.282Z,990.96
2019-03-17T01:07:02.273Z,990.98
2019-03-17T01:08:02.278Z,990.99
2019-03-17T01:09:02.240Z,990.97
2019-03-17T01:10:02.247Z,990.92
2019-03-17T01:11:02.230Z,990.79
2019-03-17T01:12:02.248Z,990.95
2019-03-17T01:13:02.202Z,990.88
2019-03-17T01:14:02.190Z,990.98
2019-03-17T01:15:02.178Z,990.99
2019-03-17T01:16:02.161Z,990.85
2019-03-17T01:17:02.157Z,990.79
2019-03-17T01:18:02.167Z,990.83
2019-03-17T01:19:02.132Z,990.79
2019-03-17T01:20:02.127Z,990.75
2019-03-17T01:21:02.106Z,990.88
2019-03-17T01:22:02.096Z,990.85
2019-03-17T01:23:02.127Z,990.66
2019-03-17T01:24:02.073Z,990.71
2019-03-17T01:25:02.067Z,990.68
2019-03-17T01:26:02.060Z,990.60
2019-03-17T01:27:02.039Z,990.54
2019-03-17T01:28:02.042Z,990.56
2019-03-17T01:29:02.049Z,990.58
2019-03-17T01:30:02.009Z,990.51
2019-03-17T01:31:02.000Z,990.50
2019-03-17T01:32:01.985Z,990.39
2019-03-17T01:33:01.974Z,990.47
2019-03-17T01:34:01.992Z,990.31
2019-03-17T01:35:09.011Z,990.53
2019-03-17T01:37:03.051Z,990.42
2019-03-17T01:38:01.925Z,990.48
2019-03-17T01:39:01.938Z,990.51
2019-03-17T01:40:01.905Z,990.43
2019-03-17T01:41:01.883Z,990.52
2019-03-17T01:42:01.878Z,990.42
2019-03-17T01:43:01.871Z,990.43
2019-03-17T01:44:01.873Z,990.43
2019-03-17T01:45:01.851Z,990.39
2019-03-17T01:46:01.833Z,990.42
2019-03-17T01:47:01.829Z,990.42
2019-03-17T01:48:01.809Z,990.49
2019-03-17T01:49:01.827Z,990.43
2019-03-17T01:50:01.795Z,990.45
2019-03-17T01:51:01.772Z,990.42
2019-03-17T01:52:01.765Z,990.45
2019-03-17T01:53:01.752Z,990.44
2019-03-17T01:55:02.881Z,990.54
2019-03-17T01:56:01.850Z,990.39
2019-03-17T01:57:01.839Z,990.47
2019-03-17T01:58:01.819Z,990.40
2019-03-17T01:59:01.811Z,990.52
2019-03-17T02:00:01.816Z,990.43
2019-03-17T02:01:01.669Z,990.49
2019-03-17T02:02:01.658Z,990.37
2019-03-17T02:03:01.641Z,990.43
2019-03-17T02:04:01.635Z,990.39
2019-03-17T02:05:01.646Z,990.43
2019-03-17T02:06:01.609Z,990.30
2019-03-17T02:07:01.598Z,990.33
2019-03-17T02:08:01.600Z,990.25
2019-03-17T02:09:01.589Z,990.34
2019-03-17T02:10:01.689Z,990.22
2019-03-17T02:11:01.577Z,990.33
2019-03-17T02:12:01.545Z,990.20
2019-03-17T02:13:01.534Z,990.25
2019-03-17T02:14:01.523Z,990.04
2019-03-17T02:15:01.579Z,990.20
2019-03-17T02:16:01.516Z,990.23
2019-03-17T02:17:01.492Z,990.17
2019-03-17T02:18:01.476Z,990.13
2019-03-17T02:19:01.469Z,990.02
2019-03-17T02:20:01.490Z,990.12
2019-03-17T02:21:01.483Z,989.98
2019-03-17T02:22:01.452Z,990.02
2019-03-17T02:23:01.424Z,990.05
2019-03-17T02:24:01.419Z,990.16
2019-03-17T02:25:01.435Z,989.98
2019-03-17T02:26:01.421Z,989.95
2019-03-17T02:27:01.383Z,990.00
2019-03-17T02:28:01.373Z,990.02
2019-03-17T02:29:01.361Z,989.99
2019-03-17T02:30:01.362Z,989.95
2019-03-17T02:31:01.369Z,989.89
2019-03-17T02:32:01.324Z,990.03
2019-03-17T02:33:01.317Z,989.66
2019-03-17T02:34:01.310Z,990.02
2019-03-17T02:35:01.291Z,989.75
2019-03-17T02:36:01.304Z,989.79
2019-03-17T02:37:01.270Z,989.70
2019-03-17T02:38:01.265Z,989.72
2019-03-17T02:39:01.247Z,989.67
2019-03-17T02:40:01.238Z,989.64
2019-03-17T02:41:01.252Z,989.54
2019-03-17T02:42:01.213Z,989.62
2019-03-17T02:43:01.219Z,989.81
2019-03-17T02:44:01.193Z,989.53
2019-03-17T02:45:01.201Z,989.56
2019-03-17T02:46:02.977Z,989.67
2019-03-17T02:47:01.163Z,989.41
2019-03-17T02:48:01.149Z,989.27
2019-03-17T02:49:01.139Z,989.37
2019-03-17T02:50:01.134Z,989.38
2019-03-17T02:51:01.141Z,989.30
2019-03-17T02:52:01.120Z,989.42
2019-03-17T02:53:01.092Z,989.38
2019-03-17T02:54:01.084Z,989.33
2019-03-17T02:55:01.081Z,989.43
2019-03-17T02:56:01.087Z,989.28
2019-03-17T02:57:01.051Z,989.27
2019-03-17T02:58:01.043Z,989.42
2019-03-17T02:59:01.025Z,989.30
2019-03-17T03:00:01.033Z,989.29
2019-03-17T03:01:01.030Z,989.31
2019-03-17T03:02:01.019Z,989.37
2019-03-17T03:03:00.986Z,989.40
2019-03-17T03:04:00.985Z,989.53
2019-03-17T03:05:00.959Z,989.46
2019-03-17T03:06:00.977Z,989.36
2019-03-17T03:07:00.938Z,989.36
2019-03-17T03:08:00.932Z,989.31
2019-03-17T03:09:00.936Z,989.34
2019-03-17T03:10:00.903Z,989.28
2019-03-17T03:11:00.895Z,989.37
2019-03-17T03:12:00.918Z,989.31
2019-03-17T03:13:00.879Z,989.23
2019-03-17T03:14:00.862Z,989.22
2019-03-17T03:15:00.858Z,989.33
2019-03-17T03:16:00.837Z,989.23
2019-03-17T03:17:00.970Z,989.18
2019-03-17T03:18:00.820Z,989.24
2019-03-17T03:19:00.890Z,989.13
2019-03-17T03:20:00.792Z,989.29
2019-03-17T03:21:00.783Z,989.19
2019-03-17T03:22:00.792Z,989.18
2019-03-17T03:23:00.757Z,989.16
2019-03-17T03:24:00.777Z,989.11
2019-03-17T03:25:00.738Z,989.04
2019-03-17T03:26:00.735Z,989.19
2019-03-17T03:27:00.716Z,989.21
2019-03-17T03:28:00.733Z,989.23
2019-03-17T03:29:00.695Z,989.15
2019-03-17T03:30:00.692Z,989.17
2019-03-17T03:31:00.732Z,989.05
2019-03-17T03:32:00.669Z,989.22
2019-03-17T03:33:00.677Z,989.26
2019-03-17T03:34:00.639Z,989.13
2019-03-17T03:35:00.983Z,989.10
2019-03-17T03:36:10.631Z,989.19
2019-03-17T03:37:01.609Z,989.27
2019-03-17T03:38:00.629Z,989.10
2019-03-17T03:39:00.587Z,989.10
2019-03-17T03:40:00.674Z,989.10
2019-03-17T03:41:00.575Z,989.10
2019-03-17T03:42:00.551Z,989.07
2019-03-17T03:43:00.573Z,989.07
2019-03-17T03:44:00.554Z,989.05
2019-03-17T03:45:00.645Z,989.12
2019-03-17T03:46:00.507Z,989.10
2019-03-17T03:47:00.505Z,989.02
2019-03-17T03:48:00.516Z,989.00
2019-03-17T03:49:00.469Z,988.96
2019-03-17T03:50:00.482Z,989.07
2019-03-17T03:51:00.450Z,989.03
2019-03-17T03:52:00.435Z,989.22
2019-03-17T03:53:00.431Z,989.20
2019-03-17T03:54:00.442Z,989.06
2019-03-17T03:55:00.476Z,989.09
2019-03-17T03:56:00.393Z,989.21
2019-03-17T03:57:00.382Z,989.11
2019-03-17T03:58:00.378Z,989.11
2019-03-17T03:59:00.390Z,989.11
2019-03-17T04:00:00.529Z,989.03
2019-03-17T04:01:00.355Z,989.08
2019-03-17T04:02:00.326Z,989.03
2019-03-17T04:03:00.315Z,988.95
2019-03-17T04:04:00.319Z,988.94
2019-03-17T04:05:00.647Z,989.11
2019-03-17T04:06:00.292Z,989.05
2019-03-17T04:07:00.270Z,989.01
2019-03-17T04:08:00.263Z,988.90
2019-03-17T04:09:00.248Z,988.92
2019-03-17T04:10:00.705Z,988.93
2019-03-17T04:11:00.234Z,988.97
2019-03-17T04:12:00.220Z,988.89
2019-03-17T04:13:00.206Z,988.87
2019-03-17T04:14:00.198Z,988.87
2019-03-17T04:15:00.525Z,988.97
2019-03-17T04:16:00.175Z,988.90
2019-03-17T04:17:00.163Z,988.97
2019-03-17T04:18:00.152Z,989.00
2019-03-17T04:19:00.137Z,989.04
2019-03-17T04:20:00.451Z,989.05
2019-03-17T04:21:00.117Z,989.04
2019-03-17T04:22:00.102Z,988.94
2019-03-17T04:23:00.106Z,989.05
2019-03-17T04:24:00.098Z,989.02
2019-03-17T04:25:00.287Z,989.00
2019-03-17T04:26:00.068Z,988.91
2019-03-17T04:27:00.050Z,988.90
2019-03-17T04:28:00.057Z,988.86
2019-03-17T04:29:00.023Z,988.97
2019-03-17T04:30:00.106Z,989.03
2019-03-17T04:31:00.050Z,988.96
2019-03-17T04:31:59.998Z,988.93
2019-03-17T04:32:59.993Z,988.92
2019-03-17T04:33:59.970Z,989.27
2019-03-17T04:34:59.999Z,988.91
2019-03-17T04:35:59.979Z,989.04
2019-03-17T04:36:59.942Z,988.85
2019-03-17T04:37:59.939Z,988.96
2019-03-17T04:38:59.923Z,989.09
2019-03-17T04:39:59.935Z,988.80
2019-03-17T04:40:59.891Z,988.99
2019-03-17T04:41:59.921Z,989.07
2019-03-17T04:42:59.871Z,988.90
2019-03-17T04:43:59.864Z,988.96
2019-03-17T04:44:59.852Z,988.97
2019-03-17T04:45:59.863Z,988.97
2019-03-17T04:46:59.824Z,989.01
2019-03-17T04:47:59.835Z,989.05
2019-03-17T04:48:59.907Z,989.08
2019-03-17T04:49:59.809Z,989.11
2019-03-17T04:50:59.810Z,988.83
2019-03-17T04:51:59.773Z,989.21
2019-03-17T04:52:59.759Z,989.15
2019-03-17T04:53:59.749Z,989.09
2019-03-17T04:54:59.768Z,989.04
2019-03-17T04:55:59.727Z,988.95
2019-03-17T04:56:59.713Z,989.10
2019-03-17T04:57:59.716Z,988.88
2019-03-17T04:58:59.694Z,989.11
2019-03-17T04:59:59.708Z,989.11
2019-03-17T05:00:59.672Z,989.14
2019-03-17T05:01:59.686Z,989.06
2019-03-17T05:02:59.665Z,989.14
2019-03-17T05:03:59.644Z,989.13
2019-03-17T05:04:59.627Z,989.09
2019-03-17T05:05:59.614Z,989.13
2019-03-17T05:06:59.650Z,989.18
2019-03-17T05:07:59.592Z,989.15
2019-03-17T05:08:59.580Z,989.39
2019-03-17T05:09:59.571Z,989.21
2019-03-17T05:10:59.568Z,989.18
2019-03-17T05:11:59.588Z,989.24
2019-03-17T05:12:59.535Z,989.33
2019-03-17T05:13:59.527Z,989.30
2019-03-17T05:14:59.511Z,989.28
2019-03-17T05:15:59.503Z,989.22
2019-03-17T05:16:59.534Z,989.25
2019-03-17T05:17:59.482Z,989.25
2019-03-17T05:18:59.472Z,989.11
2019-03-17T05:19:59.457Z,989.36
2019-03-17T05:20:59.455Z,989.19
2019-03-17T05:21:59.467Z,989.40
2019-03-17T05:22:59.425Z,989.33
2019-03-17T05:23:59.414Z,989.31
2019-03-17T05:24:59.403Z,989.31
2019-03-17T05:25:59.402Z,989.33
2019-03-17T05:26:59.414Z,989.40
2019-03-17T05:27:59.404Z,989.25
2019-03-17T05:28:59.362Z,989.29
2019-03-17T05:29:59.349Z,989.34
2019-03-17T05:30:59.347Z,989.31
2019-03-17T05:31:59.340Z,989.35
2019-03-17T05:32:59.345Z,989.35
2019-03-17T05:33:59.305Z,989.37
2019-03-17T05:34:59.292Z,989.32
2019-03-17T05:35:59.290Z,989.41
2019-03-17T05:37:06.006Z,989.39
2019-03-17T05:38:00.285Z,989.24
2019-03-17T05:38:59.251Z,989.30
2019-03-17T05:39:59.251Z,989.30
2019-03-17T05:40:59.234Z,989.34
2019-03-17T05:41:59.219Z,989.34
2019-03-17T05:42:59.231Z,989.33
2019-03-17T05:43:59.215Z,989.25
2019-03-17T05:44:59.182Z,989.22
2019-03-17T05:45:59.170Z,989.17
2019-03-17T05:46:59.159Z,989.21
2019-03-17T05:47:59.153Z,989.15
2019-03-17T05:48:59.163Z,989.26
2019-03-17T05:49:59.124Z,989.21
2019-03-17T05:50:59.122Z,989.16
2019-03-17T05:51:59.110Z,989.18
2019-03-17T05:52:59.091Z,989.23
2019-03-17T05:53:59.112Z,989.20
2019-03-17T05:54:59.071Z,989.28
2019-03-17T05:55:59.061Z,989.26
2019-03-17T05:56:59.060Z,989.23
2019-03-17T05:57:59.043Z,989.20
2019-03-17T05:58:59.058Z,989.33
2019-03-17T05:59:59.020Z,989.23
2019-03-17T06:00:59.070Z,989.21
2019-03-17T06:01:59.065Z,989.28
2019-03-17T06:02:58.981Z,989.44
2019-03-17T06:03:58.995Z,989.37
2019-03-17T06:04:58.961Z,989.36
2019-03-17T06:05:58.947Z,989.30
2019-03-17T06:06:58.936Z,989.31
2019-03-17T06:07:58.933Z,989.37
2019-03-17T06:08:58.950Z,989.36
2019-03-17T06:09:58.931Z,989.37
2019-03-17T06:10:58.893Z,989.30
2019-03-17T06:11:58.894Z,989.36
2019-03-17T06:12:58.869Z,989.46
2019-03-17T06:13:58.885Z,989.62
2019-03-17T06:14:58.871Z,989.42
2019-03-17T06:15:58.839Z,989.31
2019-03-17T06:16:58.823Z,989.45
2019-03-17T06:17:58.817Z,989.47
2019-03-17T06:18:58.806Z,989.45
2019-03-17T06:19:58.821Z,989.58
2019-03-17T06:20:58.784Z,989.47
2019-03-17T06:22:00.518Z,989.41
2019-03-17T06:22:58.772Z,989.48
2019-03-17T06:23:58.747Z,989.60
2019-03-17T06:24:58.766Z,989.55
2019-03-17T06:25:58.726Z,989.47
2019-03-17T06:26:58.716Z,989.51
2019-03-17T06:27:58.704Z,989.49
2019-03-17T06:28:58.695Z,989.45
2019-03-17T06:29:58.716Z,989.44
2019-03-17T06:30:58.678Z,989.56
2019-03-17T06:31:58.665Z,989.53
2019-03-17T06:32:58.657Z,989.36
2019-03-17T06:33:58.642Z,989.48
2019-03-17T06:34:58.669Z,989.55
2019-03-17T06:35:58.623Z,989.45
2019-03-17T06:36:58.611Z,989.62
2019-03-17T06:37:58.603Z,989.57
2019-03-17T06:38:58.585Z,989.63
2019-03-17T06:39:58.598Z,989.73
2019-03-17T06:40:58.586Z,989.57
2019-03-17T06:41:58.557Z,989.52
2019-03-17T06:42:58.539Z,989.53
2019-03-17T06:43:58.532Z,989.60
2019-03-17T06:44:58.544Z,989.55
2019-03-17T06:45:58.534Z,989.59
2019-03-17T06:46:58.493Z,989.72
2019-03-17T06:47:58.485Z,989.58
2019-03-17T06:48:58.475Z,989.61
2019-03-17T06:49:58.463Z,989.64
2019-03-17T06:50:58.481Z,989.54
2019-03-17T06:51:58.444Z,989.62
2019-03-17T06:52:58.433Z,989.70
2019-03-17T06:53:58.421Z,989.62
2019-03-17T06:54:58.404Z,989.61
2019-03-17T06:55:58.418Z,989.68
2019-03-17T06:56:58.389Z,989.72
2019-03-17T06:57:58.388Z,989.73
2019-03-17T06:58:58.364Z,989.63
2019-03-17T06:59:58.353Z,989.65
2019-03-17T07:00:58.372Z,989.70
2019-03-17T07:01:58.366Z,989.76
2019-03-17T07:02:58.319Z,989.69
2019-03-17T07:03:58.304Z,989.69
2019-03-17T07:04:58.308Z,989.68
2019-03-17T07:05:58.289Z,989.68
2019-03-17T07:06:58.302Z,989.75
2019-03-17T07:07:58.260Z,989.71
2019-03-17T07:08:58.254Z,989.81
2019-03-17T07:09:58.248Z,989.87
2019-03-17T07:10:58.234Z,989.91
2019-03-17T07:11:58.243Z,989.99
2019-03-17T07:12:58.210Z,989.96
2019-03-17T07:13:58.198Z,990.01
2019-03-17T07:14:58.194Z,989.88
2019-03-17T07:15:58.177Z,990.05
2019-03-17T07:16:58.212Z,990.06
2019-03-17T07:17:58.154Z,990.09
2019-03-17T07:18:58.145Z,990.19
2019-03-17T07:19:58.135Z,990.38
2019-03-17T07:20:58.122Z,990.36
2019-03-17T07:21:58.135Z,990.42
2019-03-17T07:22:58.178Z,990.45
2019-03-17T07:23:58.082Z,990.50
2019-03-17T07:24:58.082Z,990.54
2019-03-17T07:25:58.060Z,990.51
2019-03-17T07:26:58.163Z,990.65
2019-03-17T07:27:58.038Z,990.59
2019-03-17T07:28:58.032Z,990.63
2019-03-17T07:29:58.024Z,990.67
2019-03-17T07:30:58.013Z,990.68
2019-03-17T07:31:58.020Z,990.78
2019-03-17T07:32:57.983Z,990.91
2019-03-17T07:33:57.972Z,990.86
2019-03-17T07:34:57.964Z,991.03
2019-03-17T07:35:57.962Z,991.02
2019-03-17T07:36:57.983Z,991.07
2019-03-17T07:37:57.933Z,991.11
2019-03-17T07:39:10.841Z,991.16
2019-03-17T07:39:58.909Z,991.24
2019-03-17T07:40:57.903Z,991.33
2019-03-17T07:41:57.891Z,991.33
2019-03-17T07:42:57.901Z,991.39
2019-03-17T07:43:57.863Z,991.44
2019-03-17T07:44:57.857Z,991.44
2019-03-17T07:45:57.849Z,991.47
2019-03-17T07:46:57.839Z,991.56
2019-03-17T07:47:57.848Z,991.59
2019-03-17T07:48:57.812Z,991.65
2019-03-17T07:49:57.797Z,991.69
2019-03-17T07:50:57.789Z,991.69
2019-03-17T07:51:57.783Z,991.61
2019-03-17T07:52:57.789Z,991.61
2019-03-17T07:53:57.766Z,991.66
2019-03-17T07:54:57.745Z,991.61
2019-03-17T07:55:57.740Z,991.61
2019-03-17T07:56:57.718Z,991.71
2019-03-17T07:57:57.748Z,991.62
2019-03-17T07:58:57.727Z,991.64
2019-03-17T07:59:57.697Z,991.62
2019-03-17T08:00:57.677Z,991.79
2019-03-17T08:01:57.663Z,991.76
2019-03-17T08:02:57.658Z,991.79
2019-03-17T08:03:57.680Z,991.60
2019-03-17T08:04:57.635Z,991.63
2019-03-17T08:05:57.621Z,991.61
2019-03-17T08:06:57.620Z,991.66
2019-03-17T08:08:08.667Z,991.56
2019-03-17T08:08:58.615Z,991.55
2019-03-17T08:09:57.597Z,991.58
2019-03-17T08:10:57.584Z,991.58
2019-03-17T08:11:57.554Z,991.64
2019-03-17T08:12:57.547Z,991.69
2019-03-17T08:13:57.563Z,991.68
2019-03-17T08:14:57.883Z,991.72
2019-03-17T08:15:57.512Z,991.69
2019-03-17T08:16:57.502Z,991.63
2019-03-17T08:17:57.486Z,991.66
2019-03-17T08:18:57.533Z,991.70
2019-03-17T08:19:57.463Z,991.64
2019-03-17T08:20:57.460Z,991.69
2019-03-17T08:21:57.447Z,991.80
2019-03-17T08:22:57.436Z,991.86
2019-03-17T08:23:57.427Z,991.81
2019-03-17T08:24:57.432Z,991.82
2019-03-17T08:25:57.400Z,991.85
2019-03-17T08:26:57.385Z,991.86
2019-03-17T08:27:57.379Z,991.86
2019-03-17T08:28:57.390Z,991.86
2019-03-17T08:29:57.390Z,991.82
2019-03-17T08:30:57.340Z,991.82
2019-03-17T08:31:57.334Z,991.80
2019-03-17T08:32:57.326Z,991.80
2019-03-17T08:33:57.315Z,991.84
2019-03-17T08:34:57.334Z,991.87
2019-03-17T08:35:57.294Z,991.96
2019-03-17T08:36:57.282Z,991.96
2019-03-17T08:37:57.265Z,991.96
2019-03-17T08:38:57.256Z,992.01
2019-03-17T08:39:57.289Z,992.03
2019-03-17T08:40:57.256Z,992.11
2019-03-17T08:41:57.221Z,992.12
2019-03-17T08:42:57.208Z,992.20
2019-03-17T08:43:57.206Z,992.10
2019-03-17T08:44:57.219Z,992.15
2019-03-17T08:45:57.186Z,992.13
2019-03-17T08:46:57.165Z,992.19
2019-03-17T08:47:58.696Z,992.18
2019-03-17T08:48:57.194Z,992.25
2019-03-17T08:49:57.165Z,992.29
2019-03-17T08:50:57.125Z,992.26
2019-03-17T08:51:57.158Z,992.28
2019-03-17T08:52:57.103Z,992.32
2019-03-17T08:53:57.090Z,992.28
2019-03-17T08:54:57.111Z,992.32
2019-03-17T08:55:57.095Z,992.35
2019-03-17T08:56:57.067Z,992.41
2019-03-17T08:57:57.052Z,992.39
2019-03-17T08:58:57.039Z,992.41
2019-03-17T08:59:57.045Z,992.42
2019-03-17T09:00:57.045Z,992.49
2019-03-17T09:01:57.001Z,992.52
2019-03-17T09:02:57.001Z,992.50
2019-03-17T09:03:56.983Z,992.51
2019-03-17T09:04:56.981Z,992.59
2019-03-17T09:05:56.987Z,992.58
2019-03-17T09:06:56.959Z,992.64
2019-03-17T09:07:56.934Z,992.63
2019-03-17T09:08:56.926Z,992.68
2019-03-17T09:09:56.912Z,992.69
2019-03-17T09:10:56.937Z,992.66
2019-03-17T09:11:56.916Z,992.69
2019-03-17T09:12:56.895Z,992.68
2019-03-17T09:13:56.868Z,992.71
2019-03-17T09:14:56.862Z,992.68
2019-03-17T09:15:56.876Z,992.67
2019-03-17T09:16:56.843Z,992.78
2019-03-17T09:17:56.828Z,992.75
2019-03-17T09:18:56.825Z,992.80
2019-03-17T09:19:56.813Z,992.86
2019-03-17T09:20:56.905Z,992.83
2019-03-17T09:21:56.782Z,992.93
2019-03-17T09:22:56.783Z,992.95
2019-03-17T09:23:56.767Z,992.95
2019-03-17T09:24:56.755Z,992.93
2019-03-17T09:25:56.761Z,993.00
2019-03-17T09:26:56.752Z,992.93
2019-03-17T09:27:56.716Z,992.96
2019-03-17T09:28:56.710Z,993.02
2019-03-17T09:29:56.694Z,993.01
2019-03-17T09:30:56.684Z,992.99
2019-03-17T09:31:56.705Z,992.98
2019-03-17T09:32:56.661Z,993.03
2019-03-17T09:33:56.652Z,993.09
2019-03-17T09:34:56.645Z,992.97
2019-03-17T09:35:56.640Z,992.98
2019-03-17T09:36:56.659Z,992.99
2019-03-17T09:37:56.607Z,993.00
2019-03-17T09:38:56.600Z,992.92
2019-03-17T09:39:56.590Z,992.95
2019-03-17T09:40:56.579Z,992.88
2019-03-17T09:41:56.597Z,992.91
2019-03-17T09:42:56.553Z,992.95
2019-03-17T09:43:56.549Z,992.89
2019-03-17T09:44:56.528Z,992.93
2019-03-17T09:45:56.526Z,993.06
2019-03-17T09:46:56.539Z,992.88
2019-03-17T09:47:56.520Z,992.92
2019-03-17T09:48:56.498Z,993.02
2019-03-17T09:49:56.484Z,993.15
2019-03-17T09:50:56.463Z,993.07
2019-03-17T09:51:56.454Z,993.12
2019-03-17T09:52:56.462Z,993.00
2019-03-17T09:53:56.427Z,992.98
2019-03-17T09:54:56.440Z,993.03
2019-03-17T09:55:56.419Z,992.98
2019-03-17T09:56:56.404Z,993.10
2019-03-17T09:57:56.422Z,993.15
2019-03-17T09:58:56.383Z,993.13
2019-03-17T09:59:56.361Z,993.04
2019-03-17T10:00:56.350Z,993.02
2019-03-17T10:01:56.343Z,992.94
2019-03-17T10:02:56.372Z,992.94
2019-03-17T10:03:56.330Z,992.96
2019-03-17T10:04:56.310Z,992.97
2019-03-17T10:05:56.300Z,992.93
2019-03-17T10:06:56.284Z,992.90
2019-03-17T10:07:56.310Z,993.00
2019-03-17T10:09:00.341Z,993.01
2019-03-17T10:09:56.264Z,993.04
2019-03-17T10:10:56.245Z,993.10
2019-03-17T10:11:56.237Z,993.10
2019-03-17T10:12:56.251Z,993.07
2019-03-17T10:13:56.215Z,993.12
2019-03-17T10:14:56.205Z,993.11
2019-03-17T10:15:56.189Z,993.10
2019-03-17T10:16:56.173Z,993.11
2019-03-17T10:17:56.285Z,993.11
2019-03-17T10:18:56.164Z,993.14
2019-03-17T10:19:56.143Z,993.20
2019-03-17T10:20:56.138Z,993.22
2019-03-17T10:21:56.122Z,993.22
2019-03-17T10:22:56.108Z,993.20
2019-03-17T10:23:56.280Z,993.22
2019-03-17T10:24:56.091Z,993.19
2019-03-17T10:25:56.078Z,993.34
2019-03-17T10:26:56.065Z,993.31
2019-03-17T10:27:56.059Z,993.31
2019-03-17T10:28:56.077Z,993.38
2019-03-17T10:29:56.059Z,993.44
2019-03-17T10:30:56.025Z,993.39
2019-03-17T10:31:56.017Z,993.41
2019-03-17T10:32:56.012Z,993.33
2019-03-17T10:33:56.023Z,993.46
2019-03-17T10:34:56.008Z,993.35
2019-03-17T10:35:55.967Z,993.25
2019-03-17T10:36:55.957Z,993.35
2019-03-17T10:37:55.954Z,993.48
2019-03-17T10:38:55.980Z,993.42
2019-03-17T10:39:55.935Z,993.49
2019-03-17T10:40:55.912Z,993.47
2019-03-17T10:41:55.896Z,993.37
2019-03-17T10:42:55.895Z,993.50
2019-03-17T10:43:55.880Z,993.26
2019-03-17T10:44:55.905Z,993.32
2019-03-17T10:45:55.858Z,993.26
2019-03-17T10:46:55.854Z,993.25
2019-03-17T10:47:55.841Z,993.27
2019-03-17T10:48:55.839Z,993.38
2019-03-17T10:49:55.848Z,993.42
2019-03-17T10:50:55.803Z,993.38
2019-03-17T10:51:55.793Z,993.33
2019-03-17T10:52:55.776Z,993.43
2019-03-17T10:53:55.774Z,993.44
2019-03-17T10:54:55.797Z,993.42
2019-03-17T10:55:55.754Z,993.41
2019-03-17T10:56:55.736Z,993.36
2019-03-17T10:57:55.760Z,993.39
2019-03-17T10:58:55.717Z,993.45
2019-03-17T10:59:55.721Z,993.46
2019-03-17T11:00:55.727Z,993.53
2019-03-17T11:01:55.690Z,993.43
2019-03-17T11:02:55.679Z,993.48
2019-03-17T11:03:55.667Z,993.53
2019-03-17T11:04:55.658Z,993.55
2019-03-17T11:05:55.664Z,993.61
2019-03-17T11:06:55.633Z,993.63
2019-03-17T11:07:55.618Z,993.59
2019-03-17T11:08:55.601Z,993.60
2019-03-17T11:09:55.594Z,993.56
2019-03-17T11:10:55.612Z,993.61
2019-03-17T11:11:55.577Z,993.60
2019-03-17T11:12:55.566Z,993.59
2019-03-17T11:13:55.567Z,993.56
2019-03-17T11:14:55.553Z,993.60
2019-03-17T11:15:55.555Z,993.59
2019-03-17T11:16:55.540Z,993.62
2019-03-17T11:17:55.519Z,993.66
2019-03-17T11:18:55.498Z,993.66
2019-03-17T11:19:55.480Z,993.71
2019-03-17T11:20:55.496Z,993.84
2019-03-17T11:21:55.462Z,993.72
2019-03-17T11:22:55.453Z,993.67
2019-03-17T11:23:55.449Z,993.81
2019-03-17T11:24:55.432Z,993.71
2019-03-17T11:25:55.444Z,993.70
2019-03-17T11:26:55.832Z,993.71
2019-03-17T11:27:55.395Z,993.82
2019-03-17T11:28:55.385Z,993.70
2019-03-17T11:29:55.374Z,993.71
2019-03-17T11:30:55.368Z,993.69
2019-03-17T11:31:55.391Z,993.73
2019-03-17T11:32:55.351Z,993.95
2019-03-17T11:33:55.338Z,993.89
2019-03-17T11:34:55.328Z,993.80
2019-03-17T11:35:55.332Z,993.85
2019-03-17T11:36:55.331Z,993.84
2019-03-17T11:37:55.288Z,993.87
2019-03-17T11:38:55.272Z,993.92
2019-03-17T11:39:55.276Z,993.85
2019-03-17T11:40:55.263Z,993.90
2019-03-17T11:41:55.273Z,994.02
2019-03-17T11:42:55.236Z,994.03
2019-03-17T11:43:55.229Z,994.08
2019-03-17T11:44:55.219Z,994.10
2019-03-17T11:45:55.200Z,994.03
2019-03-17T11:46:55.226Z,994.07
2019-03-17T11:47:55.183Z,994.22
2019-03-17T11:48:55.205Z,994.21
2019-03-17T11:49:55.159Z,994.18
2019-03-17T11:50:55.150Z,994.24
2019-03-17T11:51:55.156Z,994.21
2019-03-17T11:52:55.123Z,994.17
2019-03-17T11:53:55.122Z,994.21
2019-03-17T11:54:55.094Z,994.23
2019-03-17T11:55:55.092Z,994.28
2019-03-17T11:56:55.112Z,994.30
2019-03-17T11:57:55.108Z,994.23
2019-03-17T11:58:55.055Z,994.18
2019-03-17T11:59:55.104Z,994.23
2019-03-17T12:00:55.166Z,994.25
2019-03-17T12:01:55.064Z,994.28
2019-03-17T12:02:55.018Z,994.24
2019-03-17T12:03:55.015Z,994.33
2019-03-17T12:04:55.007Z,994.39
2019-03-17T12:05:54.979Z,994.37
2019-03-17T12:06:54.975Z,994.43
2019-03-17T12:07:55.303Z,994.50
2019-03-17T12:08:54.944Z,994.41
2019-03-17T12:09:54.965Z,994.43
2019-03-17T12:10:54.935Z,994.40
2019-03-17T12:11:54.914Z,994.44
2019-03-17T12:12:54.921Z,994.39
2019-03-17T12:13:54.912Z,994.56
2019-03-17T12:14:54.894Z,994.49
2019-03-17T12:15:54.873Z,994.37
2019-03-17T12:16:54.867Z,994.34
2019-03-17T12:17:54.892Z,994.48
2019-03-17T12:18:54.834Z,994.48
2019-03-17T12:19:54.826Z,994.45
2019-03-17T12:20:54.822Z,994.46
2019-03-17T12:21:54.801Z,994.53
2019-03-17T12:22:54.791Z,994.60
2019-03-17T12:23:54.831Z,994.53
2019-03-17T12:24:54.763Z,994.49
2019-03-17T12:25:54.753Z,994.59
2019-03-17T12:26:54.754Z,994.55
2019-03-17T12:27:54.743Z,994.58
2019-03-17T12:28:54.750Z,994.57
2019-03-17T12:29:54.707Z,994.57